Time;durP1;ratioP1;P1;durP2;ratioP2;P2;SDS_P1;SDS_P2;PMS_P1;PMS_P2;Temp;Humidity;BMP_temperature;BMP_pressure;BME280_temperature;BME280_humidity;BME280_pressure;Samples;Min_cycle;Max_cycle;Signal;HPM_P1;HPM_P2
2022/06/14 00:01:44;;;;;;;5.80;1.60;;;;;;;;;;4981600;28;20221;-65
2022/06/14 00:04:09;;;;;;;9.95;1.63;;;;;;;;;;4999410;28;20224;-65
2022/06/14 00:06:35;;;;;;;8.77;1.60;;;;;;;;;;4982723;28;20224;-65
2022/06/14 00:09:00;;;;;;;7.13;1.58;;;;;;;;;;4994014;28;20380;-65
2022/06/14 00:11:26;;;;;;;8.27;1.63;;;;;;;;;;4978941;28;20233;-65
2022/06/14 00:13:52;;;;;;;5.95;1.45;;;;;;;;;;4993518;28;20264;-66
2022/06/14 00:16:17;;;;;;;6.07;1.45;;;;;;;;;;4983164;28;20245;-65
2022/06/14 00:18:42;;;;;;;6.97;1.90;;;;;;;;;;4985370;28;20283;-66
2022/06/14 00:21:08;;;;;;;5.32;1.90;;;;;;;;;;4985735;28;20286;-65
2022/06/14 00:23:34;;;;;;;7.55;2.08;;;;;;;;;;4985722;28;20575;-66
2022/06/14 00:25:59;;;;;;;7.82;2.10;;;;;;;;;;4985416;28;20252;-66
2022/06/14 00:28:25;;;;;;;8.30;1.70;;;;;;;;;;5000400;28;20228;-66
2022/06/14 00:30:52;;;;;;;9.25;2.35;;;;;;;;;;4983244;28;20224;-66
2022/06/14 00:33:17;;;;;;;9.30;2.33;;;;;;;;;;4989970;28;20225;-65
2022/06/14 00:35:43;;;;;;;9.30;2.15;;;;;;;;;;4978055;28;20622;-66
2022/06/14 00:38:09;;;;;;;10.10;2.67;;;;;;;;;;5013668;28;20443;-65
2022/06/14 00:40:35;;;;;;;11.02;2.15;;;;;;;;;;4998142;28;20208;-65
2022/06/14 00:43:02;;;;;;;9.02;2.63;;;;;;;;;;4985752;28;20213;-63
2022/06/14 00:45:28;;;;;;;9.65;2.50;;;;;;;;;;5004619;28;20216;-65
2022/06/14 00:48:02;;;;;;;10.27;2.80;;;;;;;;;;5003171;28;20843;-66
2022/06/14 00:50:28;;;;;;;9.75;3.00;;;;;;;;;;5019129;28;20212;-66
2022/06/14 00:52:55;;;;;;;8.85;2.80;;;;;;;;;;5018494;28;20224;-66
2022/06/14 00:55:23;;;;;;;8.65;2.88;;;;;;;;;;5010890;28;20584;-66
2022/06/14 00:57:49;;;;;;;10.90;3.35;;;;;;;;;;5011479;28;20723;-66
2022/06/14 01:00:15;;;;;;;7.05;2.33;;;;;;;;;;4996263;28;20332;-66
2022/06/14 01:02:43;;;;;;;9.90;2.60;;;;;;;;;;5018035;28;20220;-66
2022/06/14 01:05:10;;;;;;;8.80;2.53;;;;;;;;;;5019030;28;20220;-65
2022/06/14 01:07:38;;;;;;;13.38;2.75;;;;;;;;;;5003985;28;20550;-66
2022/06/14 01:10:05;;;;;;;11.68;2.70;;;;;;;;;;5002797;28;20212;-65
2022/06/14 01:12:31;;;;;;;9.48;2.63;;;;;;;;;;5004042;28;20221;-66
2022/06/14 01:15:00;;;;;;;11.45;2.38;;;;;;;;;;5004028;28;20212;-66
2022/06/14 01:17:25;;;;;;;7.63;2.30;;;;;;;;;;4996082;28;21091;-65
2022/06/14 01:19:51;;;;;;;9.95;2.70;;;;;;;;;;5010432;28;20581;-66
2022/06/14 01:22:16;;;;;;;10.45;2.53;;;;;;;;;;5009547;28;20221;-65
2022/06/14 01:24:41;;;;;;;10.05;2.40;;;;;;;;;;5002555;28;20228;-66
2022/06/14 01:27:08;;;;;;;8.40;2.60;;;;;;;;;;5018415;28;20226;-65
2022/06/14 01:29:34;;;;;;;11.90;2.80;;;;;;;;;;5002561;28;20684;-66
2022/06/14 01:32:00;;;;;;;9.88;2.30;;;;;;;;;;5005585;28;20221;-66
2022/06/14 01:34:27;;;;;;;12.00;2.90;;;;;;;;;;4998214;28;20623;-66
2022/06/14 01:36:52;;;;;;;10.93;2.70;;;;;;;;;;5014477;28;20375;-66
2022/06/14 01:39:18;;;;;;;9.15;2.17;;;;;;;;;;5012392;28;20216;-66
2022/06/14 01:41:43;;;;;;;6.90;2.28;;;;;;;;;;4980175;28;20202;-67
2022/06/14 01:44:28;;;;;;;8.30;2.25;;;;;;;;;;4975757;28;20367;-66
2022/06/14 01:46:57;;;;;;;10.00;2.72;;;;;;;;;;4996794;28;20228;-67
2022/06/14 01:52:22;;;;;;;10.02;2.30;;;;;;;;;;5001784;28;20259;-66
2022/06/14 01:54:51;;;;;;;13.25;2.45;;;;;;;;;;5017959;28;20218;-65
2022/06/14 01:57:27;;;;;;;10.25;2.28;;;;;;;;;;5017002;28;20212;-65
2022/06/14 01:59:56;;;;;;;10.05;2.22;;;;;;;;;;5017983;28;20236;-65
2022/06/14 02:02:35;;;;;;;12.40;2.80;;;;;;;;;;5011677;28;20219;-66
2022/06/14 02:05:00;;;;;;;9.00;2.50;;;;;;;;;;4988089;28;20798;-65
2022/06/14 02:07:38;;;;;;;8.27;2.70;;;;;;;;;;4994743;28;20205;-66
2022/06/14 02:10:08;;;;;;;8.77;2.72;;;;;;;;;;5001428;28;20698;-65
2022/06/14 02:12:45;;;;;;;9.93;2.70;;;;;;;;;;5017153;28;20695;-65
2022/06/14 02:15:16;;;;;;;9.40;2.53;;;;;;;;;;5002280;28;20216;-65
2022/06/14 02:17:43;;;;;;;12.50;2.70;;;;;;;;;;5017163;28;20217;-66
2022/06/14 02:20:10;;;;;;;10.77;2.40;;;;;;;;;;5016240;28;20252;-65
2022/06/14 02:22:38;;;;;;;10.02;2.75;;;;;;;;;;5017911;28;20200;-65
2022/06/14 02:25:05;;;;;;;14.35;2.78;;;;;;;;;;5011578;28;20230;-64
2022/06/14 02:27:35;;;;;;;11.05;2.40;;;;;;;;;;4994255;28;20706;-65
2022/06/14 02:30:08;;;;;;;13.38;2.80;;;;;;;;;;5009853;28;20212;-63
2022/06/14 02:32:36;;;;;;;10.30;2.63;;;;;;;;;;4997248;28;20689;-65
2022/06/14 02:35:05;;;;;;;10.00;2.42;;;;;;;;;;5016974;28;20212;-65
2022/06/14 02:37:33;;;;;;;9.38;2.40;;;;;;;;;;5017785;28;20204;-65
2022/06/14 02:39:59;;;;;;;14.95;2.90;;;;;;;;;;5015234;28;20220;-65
2022/06/14 02:42:29;;;;;;;10.15;2.30;;;;;;;;;;5013574;28;20568;-65
2022/06/14 02:44:58;;;;;;;11.02;2.47;;;;;;;;;;5000022;28;20259;-65
2022/06/14 02:47:36;;;;;;;10.13;2.55;;;;;;;;;;5010985;28;20228;-65
2022/06/14 02:50:18;;;;;;;13.27;3.00;;;;;;;;;;4993700;28;20223;-63
2022/06/14 02:52:52;;;;;;;9.23;2.05;;;;;;;;;;5009194;28;20907;-64
2022/06/14 02:55:28;;;;;;;8.25;2.20;;;;;;;;;;5015279;28;20216;-64
2022/06/14 02:58:01;;;;;;;13.02;2.63;;;;;;;;;;5002072;28;20579;-63
2022/06/14 03:00:28;;;;;;;10.05;2.80;;;;;;;;;;5017069;28;20224;-65
2022/06/14 03:02:56;;;;;;;10.63;2.35;;;;;;;;;;5016217;28;20216;-64
2022/06/14 03:05:33;;;;;;;12.32;2.15;;;;;;;;;;5015953;28;20575;-63
2022/06/14 03:08:03;;;;;;;11.40;2.63;;;;;;;;;;5016021;28;20259;-63
2022/06/14 03:10:36;;;;;;;7.13;1.90;;;;;;;;;;4995710;28;20209;-64
2022/06/14 03:13:01;;;;;;;10.38;2.40;;;;;;;;;;4993754;28;20236;-63
2022/06/14 03:15:38;;;;;;;9.60;2.17;;;;;;;;;;4993712;28;20208;-64
2022/06/14 03:18:06;;;;;;;9.48;1.95;;;;;;;;;;5000716;28;20238;-63
2022/06/14 03:20:34;;;;;;;11.23;2.60;;;;;;;;;;5016732;28;20208;-64
2022/06/14 03:23:14;;;;;;;10.75;2.67;;;;;;;;;;5016392;28;20638;-64
2022/06/14 03:25:40;;;;;;;10.55;2.25;;;;;;;;;;5001779;28;20220;-64
2022/06/14 03:28:08;;;;;;;12.93;2.60;;;;;;;;;;5016358;28;20244;-64
2022/06/14 03:30:35;;;;;;;14.10;2.25;;;;;;;;;;4998600;28;20614;-64
2022/06/14 03:33:10;;;;;;;14.73;2.40;;;;;;;;;;5010186;28;20626;-63
2022/06/14 03:35:38;;;;;;;10.80;2.50;;;;;;;;;;4994005;28;20370;-63
2022/06/14 03:38:04;;;;;;;13.95;2.50;;;;;;;;;;4993037;28;20459;-64
2022/06/14 03:40:30;;;;;;;10.00;2.10;;;;;;;;;;5010106;28;20216;-64
2022/06/14 03:42:55;;;;;;;11.23;2.10;;;;;;;;;;4997906;28;20205;-66
2022/06/14 03:45:23;;;;;;;9.30;2.40;;;;;;;;;;5000555;28;20216;-67
2022/06/14 03:47:48;;;;;;;13.00;2.25;;;;;;;;;;5019773;28;20691;-65
2022/06/14 03:50:24;;;;;;;12.00;2.60;;;;;;;;;;4993506;28;20429;-66
2022/06/14 03:53:00;;;;;;;11.23;2.50;;;;;;;;;;4986372;28;20235;-66
2022/06/14 03:55:35;;;;;;;6.55;1.95;;;;;;;;;;4986611;28;20658;-66
2022/06/14 03:58:19;;;;;;;11.90;2.08;;;;;;;;;;5016477;28;20600;-64
2022/06/14 04:00:53;;;;;;;18.30;2.75;;;;;;;;;;5006477;28;20229;-65
2022/06/14 04:03:22;;;;;;;11.93;2.10;;;;;;;;;;5011021;28;20234;-63
2022/06/14 04:05:52;;;;;;;10.27;2.05;;;;;;;;;;5009629;28;20204;-64
2022/06/14 04:08:17;;;;;;;10.80;2.45;;;;;;;;;;5013737;28;20296;-63
2022/06/14 04:10:46;;;;;;;8.25;1.70;;;;;;;;;;5013721;28;20287;-63
2022/06/14 04:13:28;;;;;;;11.30;2.40;;;;;;;;;;5013231;28;20217;-63
2022/06/14 04:15:56;;;;;;;10.63;2.03;;;;;;;;;;5013106;28;20729;-65
2022/06/14 04:18:38;;;;;;;14.73;4.05;;;;;;;;;;5011547;28;20590;-65
2022/06/14 04:21:08;;;;;;;8.85;1.80;;;;;;;;;;5012628;28;20220;-64
2022/06/14 04:23:37;;;;;;;9.82;1.75;;;;;;;;;;5014089;28;20231;-65
2022/06/14 04:26:03;;;;;;;14.25;2.10;;;;;;;;;;5011482;28;20236;-63
2022/06/14 04:28:39;;;;;;;7.35;1.90;;;;;;;;;;5014165;28;20278;-64
2022/06/14 04:31:06;;;;;;;9.45;2.03;;;;;;;;;;5007523;28;20208;-65
2022/06/14 04:33:33;;;;;;;7.90;1.80;;;;;;;;;;5009361;28;20231;-64
2022/06/14 04:36:02;;;;;;;10.82;1.90;;;;;;;;;;5012999;28;20268;-65
2022/06/14 04:38:31;;;;;;;7.38;1.92;;;;;;;;;;5012781;28;20606;-65
2022/06/14 04:41:00;;;;;;;11.90;2.35;;;;;;;;;;5012257;28;20702;-65
2022/06/14 04:43:29;;;;;;;74.82;5.97;;;;;;;;;;5010247;28;20258;-64
2022/06/14 04:45:57;;;;;;;13.65;1.90;;;;;;;;;;5004164;28;20209;-66
2022/06/14 04:48:25;;;;;;;13.38;2.10;;;;;;;;;;5006604;28;20211;-77
2022/06/14 04:50:53;;;;;;;75.95;5.88;;;;;;;;;;5003560;28;20231;-74
2022/06/14 04:53:20;;;;;;;14.02;2.15;;;;;;;;;;4992000;28;20225;-75
2022/06/14 04:55:49;;;;;;;8.73;2.05;;;;;;;;;;4992256;28;20630;-71
2022/06/14 04:58:19;;;;;;;17.58;2.97;;;;;;;;;;4999749;28;20698;-74
2022/06/14 05:00:46;;;;;;;12.07;2.25;;;;;;;;;;5011915;28;20356;-76
2022/06/14 05:03:24;;;;;;;8.88;2.20;;;;;;;;;;4993694;28;20299;-77
2022/06/14 05:06:07;;;;;;;10.32;2.08;;;;;;;;;;4993791;28;20212;-72
2022/06/14 05:08:35;;;;;;;11.48;2.03;;;;;;;;;;4998810;28;20212;-73
2022/06/14 05:11:08;;;;;;;34.58;3.65;;;;;;;;;;4993796;28;20240;-71
2022/06/14 05:13:34;;;;;;;8.23;1.70;;;;;;;;;;4992148;28;20766;-74
2022/06/14 05:16:02;;;;;;;6.35;1.90;;;;;;;;;;4993450;28;20300;-71
2022/06/14 05:18:37;;;;;;;13.80;2.33;;;;;;;;;;4993870;28;20217;-71
2022/06/14 05:21:05;;;;;;;6.95;2.17;;;;;;;;;;4991904;28;20635;-71
2022/06/14 05:23:34;;;;;;;17.83;2.50;;;;;;;;;;4991524;28;20201;-72
2022/06/14 05:26:01;;;;;;;7.45;2.05;;;;;;;;;;4992394;28;20218;-73
2022/06/14 05:28:46;;;;;;;203.25;15.23;;;;;;;;;;4979875;28;20233;-77
2022/06/14 05:31:12;;;;;;;16.13;2.60;;;;;;;;;;5013471;28;20275;-72
2022/06/14 05:33:43;;;;;;;10.30;2.22;;;;;;;;;;5009669;28;20221;-68
2022/06/14 05:36:11;;;;;;;8.35;1.80;;;;;;;;;;5005433;28;20221;-71
2022/06/14 05:38:45;;;;;;;9.75;1.88;;;;;;;;;;5011693;28;20219;-73
2022/06/14 05:41:22;;;;;;;13.55;2.10;;;;;;;;;;5009252;28;20207;-73
2022/06/14 05:43:49;;;;;;;12.45;2.15;;;;;;;;;;5011470;28;20247;-73
2022/06/14 05:46:20;;;;;;;12.07;1.92;;;;;;;;;;5009530;28;20217;-74
2022/06/14 05:48:47;;;;;;;10.95;1.83;;;;;;;;;;5011324;28;20213;-71
2022/06/14 05:51:12;;;;;;;9.70;2.03;;;;;;;;;;5010836;28;20668;-74
2022/06/14 05:53:40;;;;;;;10.68;2.72;;;;;;;;;;5010052;28;20227;-75
2022/06/14 05:56:12;;;;;;;15.85;2.78;;;;;;;;;;5012460;28;20580;-74
2022/06/14 05:58:40;;;;;;;17.20;2.20;;;;;;;;;;5011789;28;20216;-74
2022/06/14 06:01:20;;;;;;;14.43;2.28;;;;;;;;;;5010602;28;20251;-74
2022/06/14 06:03:51;;;;;;;6.28;1.77;;;;;;;;;;4994431;28;20716;-76
2022/06/14 06:06:17;;;;;;;10.45;1.70;;;;;;;;;;5011949;28;20622;-78
2022/06/14 06:08:44;;;;;;;16.10;1.77;;;;;;;;;;5012558;28;20303;-73
2022/06/14 06:11:10;;;;;;;12.75;1.75;;;;;;;;;;4993281;28;20570;-71
2022/06/14 06:13:38;;;;;;;18.50;2.70;;;;;;;;;;5012193;28;20217;-74
2022/06/14 06:16:05;;;;;;;12.75;2.00;;;;;;;;;;5011895;28;20741;-73
2022/06/14 06:18:35;;;;;;;59.63;4.55;;;;;;;;;;5012051;28;20347;-76
2022/06/14 06:21:12;;;;;;;14.07;2.42;;;;;;;;;;5010463;28;20223;-73
2022/06/14 06:23:38;;;;;;;9.27;1.52;;;;;;;;;;5010979;28;20211;-73
2022/06/14 06:26:03;;;;;;;9.20;1.80;;;;;;;;;;5009444;28;20321;-73
2022/06/14 06:28:31;;;;;;;12.55;1.70;;;;;;;;;;5010689;28;20369;-76
2022/06/14 06:30:59;;;;;;;11.48;1.90;;;;;;;;;;5012091;28;20558;-71
2022/06/14 06:33:25;;;;;;;9.25;1.92;;;;;;;;;;5010835;28;20228;-74
2022/06/14 06:35:51;;;;;;;10.07;1.75;;;;;;;;;;5011983;28;20223;-74
2022/06/14 06:38:25;;;;;;;11.68;1.73;;;;;;;;;;5011442;28;20216;-73
2022/06/14 06:43:36;;;;;;;10.02;1.67;;;;;;;;;;5005952;28;20212;-70
2022/06/14 06:46:01;;;;;;;14.75;2.17;;;;;;;;;;4990171;28;20213;-70
2022/06/14 06:48:30;;;;;;;17.98;2.30;;;;;;;;;;4992511;28;20212;-72
2022/06/14 06:50:57;;;;;;;6.22;1.60;;;;;;;;;;4990428;28;20231;-70
2022/06/14 06:53:23;;;;;;;318.58;23.17;;;;;;;;;;4989648;28;20217;-73
2022/06/14 06:55:56;;;;;;;8.38;1.17;;;;;;;;;;4991968;28;20221;-75
2022/06/14 06:58:29;;;;;;;8.45;1.42;;;;;;;;;;4990729;28;20213;-72
2022/06/14 07:00:56;;;;;;;7.13;1.50;;;;;;;;;;4990160;28;20233;-72
2022/06/14 07:03:27;;;;;;;5.88;1.40;;;;;;;;;;4991541;28;20653;-75
2022/06/14 07:05:54;;;;;;;8.60;1.75;;;;;;;;;;4990283;28;20241;-74
2022/06/14 07:08:23;;;;;;;8.20;1.77;;;;;;;;;;4993175;28;20209;-72
2022/06/14 07:10:50;;;;;;;4.90;1.35;;;;;;;;;;4995707;28;20209;-74
2022/06/14 07:13:21;;;;;;;7.60;1.30;;;;;;;;;;4990219;28;20229;-72
2022/06/14 07:15:53;;;;;;;7.78;1.30;;;;;;;;;;4991081;28;20217;-74
2022/06/14 07:18:23;;;;;;;6.50;1.55;;;;;;;;;;4994739;28;20212;-73
2022/06/14 07:20:51;;;;;;;10.50;1.30;;;;;;;;;;4996087;28;20217;-75
2022/06/14 07:23:39;;;;;;;7.38;1.40;;;;;;;;;;4996789;28;20220;-73
2022/06/14 07:26:13;;;;;;;7.38;1.50;;;;;;;;;;4996689;28;20583;-76
2022/06/14 07:28:46;;;;;;;7.20;1.40;;;;;;;;;;4996254;28;20219;-72
2022/06/14 07:31:16;;;;;;;6.72;1.45;;;;;;;;;;4998018;28;20205;-76
2022/06/14 07:33:41;;;;;;;8.75;1.95;;;;;;;;;;5011730;28;20231;-63
2022/06/14 07:36:15;;;;;;;6.82;1.60;;;;;;;;;;5016497;28;20278;-64
2022/06/14 07:38:41;;;;;;;6.63;1.40;;;;;;;;;;5018132;28;20296;-64
2022/06/14 07:41:20;;;;;;;6.72;1.48;;;;;;;;;;5017545;28;20323;-64
2022/06/14 07:43:50;;;;;;;9.27;1.77;;;;;;;;;;5015784;28;20247;-65
2022/06/14 07:46:18;;;;;;;8.73;1.70;;;;;;;;;;5016391;28;20650;-65
2022/06/14 07:48:45;;;;;;;7.07;1.50;;;;;;;;;;5017884;28;20212;-64
2022/06/14 07:51:22;;;;;;;11.38;1.80;;;;;;;;;;5016740;28;20212;-65
2022/06/14 07:53:52;;;;;;;6.97;1.83;;;;;;;;;;5017657;28;20224;-64
2022/06/14 07:56:19;;;;;;;17.38;2.10;;;;;;;;;;5015215;28;20348;-65
2022/06/14 07:58:44;;;;;;;8.25;1.40;;;;;;;;;;5016597;28;20205;-64
2022/06/14 08:01:12;;;;;;;15.23;2.33;;;;;;;;;;5017136;28;20315;-65
2022/06/14 08:03:40;;;;;;;7.95;1.30;;;;;;;;;;5016912;28;20222;-64
2022/06/14 08:06:14;;;;;;;8.25;1.70;;;;;;;;;;5015980;28;20250;-64
2022/06/14 08:08:41;;;;;;;7.05;1.20;;;;;;;;;;5016079;28;20293;-63
2022/06/14 08:11:08;;;;;;;31.35;2.63;;;;;;;;;;5015127;28;20624;-64
2022/06/14 08:13:37;;;;;;;12.68;2.30;;;;;;;;;;5016436;28;20699;-64
2022/06/14 08:16:03;;;;;;;5.20;1.27;;;;;;;;;;5017325;28;20216;-64
2022/06/14 08:18:28;;;;;;;6.07;1.73;;;;;;;;;;5016654;28;20263;-64
2022/06/14 08:20:54;;;;;;;11.82;1.88;;;;;;;;;;5017305;28;20220;-64
2022/06/14 08:23:29;;;;;;;14.32;1.92;;;;;;;;;;5015693;28;20295;-65
2022/06/14 08:25:56;;;;;;;7.45;1.50;;;;;;;;;;5015689;28;20216;-64
2022/06/14 08:28:25;;;;;;;4.72;1.38;;;;;;;;;;5016050;28;20291;-64
2022/06/14 08:30:55;;;;;;;6.75;1.58;;;;;;;;;;5011994;28;20213;-64
2022/06/14 08:33:24;;;;;;;6.72;1.75;;;;;;;;;;5011278;28;20244;-64
2022/06/14 08:35:51;;;;;;;12.98;1.95;;;;;;;;;;5012851;28;20230;-65
2022/06/14 08:38:17;;;;;;;7.40;1.65;;;;;;;;;;5013096;28;20217;-65
2022/06/14 08:40:43;;;;;;;10.35;1.60;;;;;;;;;;5014562;28;20242;-65
2022/06/14 08:43:09;;;;;;;7.20;1.13;;;;;;;;;;5013780;28;20237;-65
2022/06/14 08:45:42;;;;;;;13.55;2.25;;;;;;;;;;5013473;28;20208;-64
2022/06/14 08:48:08;;;;;;;6.85;1.30;;;;;;;;;;5011761;28;20282;-66
2022/06/14 08:50:54;;;;;;;237.20;16.25;;;;;;;;;;5012743;28;20208;-66
2022/06/14 08:53:26;;;;;;;10.10;1.55;;;;;;;;;;5011645;28;20224;-64
2022/06/14 08:56:10;;;;;;;47.55;3.97;;;;;;;;;;5014371;28;20224;-64
2022/06/14 08:58:39;;;;;;;8.20;1.80;;;;;;;;;;5013197;28;20469;-62
2022/06/14 09:01:20;;;;;;;6.22;1.38;;;;;;;;;;5011140;28;21117;-64
2022/06/14 09:03:51;;;;;;;8.55;2.00;;;;;;;;;;5013486;28;20274;-64
2022/06/14 09:06:18;;;;;;;5.05;1.05;;;;;;;;;;5013191;28;20216;-65
2022/06/14 09:09:01;;;;;;;5.90;1.75;;;;;;;;;;5013356;28;20224;-65
2022/06/14 09:11:43;;;;;;;7.30;1.30;;;;;;;;;;5013353;28;20216;-64
2022/06/14 09:14:09;;;;;;;3.80;1.17;;;;;;;;;;5011270;28;20711;-64
2022/06/14 09:16:43;;;;;;;9.55;2.45;;;;;;;;;;5012681;28;20212;-65
2022/06/14 09:19:28;;;;;;;9.88;1.55;;;;;;;;;;5011015;28;20296;-66
2022/06/14 09:21:57;;;;;;;8.23;1.50;;;;;;;;;;5012435;28;20221;-72
2022/06/14 09:24:23;;;;;;;8.20;1.40;;;;;;;;;;5011714;28;20227;-70
2022/06/14 09:27:06;;;;;;;6.82;1.58;;;;;;;;;;5013547;28;20680;-68
2022/06/14 09:29:32;;;;;;;6.68;1.42;;;;;;;;;;5012105;28;20224;-72
2022/06/14 09:32:04;;;;;;;27.92;3.85;;;;;;;;;;5012766;28;20741;-72
2022/06/14 09:34:29;;;;;;;16.45;2.53;;;;;;;;;;4999916;28;20236;-74
2022/06/14 09:37:05;;;;;;;9.38;1.40;;;;;;;;;;4993797;28;20676;-75
2022/06/14 09:39:35;;;;;;;13.27;1.80;;;;;;;;;;5000916;28;20680;-75
2022/06/14 09:42:01;;;;;;;5.50;1.60;;;;;;;;;;4990725;28;20221;-68
2022/06/14 09:44:36;;;;;;;6.80;1.30;;;;;;;;;;5004456;28;20745;-73
2022/06/14 09:47:12;;;;;;;5.00;1.30;;;;;;;;;;5011014;28;20851;-65
2022/06/14 09:49:43;;;;;;;8.50;1.30;;;;;;;;;;5006965;28;20211;-66
2022/06/14 09:52:15;;;;;;;17.65;1.90;;;;;;;;;;5009289;28;20220;-66
2022/06/14 09:54:42;;;;;;;9.77;1.50;;;;;;;;;;5012042;28;20278;-66
2022/06/14 09:57:11;;;;;;;198.27;16.83;;;;;;;;;;5011167;28;20636;-66
2022/06/14 09:59:52;;;;;;;6.18;1.63;;;;;;;;;;5011004;28;20316;-68
2022/06/14 10:02:18;;;;;;;16.83;2.45;;;;;;;;;;5011189;28;20220;-68
2022/06/14 10:04:53;;;;;;;8.07;1.70;;;;;;;;;;5011436;28;20229;-68
2022/06/14 10:07:29;;;;;;;8.05;2.10;;;;;;;;;;5011776;28;20204;-66
2022/06/14 10:10:10;;;;;;;5.93;1.30;;;;;;;;;;5002606;28;20217;-65
2022/06/14 10:12:44;;;;;;;4.22;1.30;;;;;;;;;;4998101;28;20217;-66
2022/06/14 10:15:16;;;;;;;9.65;1.60;;;;;;;;;;4990996;28;20216;-66
2022/06/14 10:17:55;;;;;;;7.88;1.40;;;;;;;;;;4991458;28;20747;-65
2022/06/14 10:20:27;;;;;;;4.63;1.30;;;;;;;;;;4990560;28;20299;-73
2022/06/14 10:23:00;;;;;;;4.07;1.30;;;;;;;;;;4991495;28;20209;-65
2022/06/14 10:25:30;;;;;;;6.50;1.30;;;;;;;;;;5007883;28;20281;-64
2022/06/14 10:28:13;;;;;;;4.38;1.10;;;;;;;;;;4992581;28;20235;-65
2022/06/14 10:30:47;;;;;;;5.60;1.40;;;;;;;;;;5006297;28;20236;-65
2022/06/14 10:33:31;;;;;;;28.67;2.28;;;;;;;;;;5008295;28;20219;-63
2022/06/14 10:36:11;;;;;;;4.75;1.23;;;;;;;;;;5012057;28;20240;-62
2022/06/14 10:38:42;;;;;;;8.73;1.38;;;;;;;;;;5009460;28;20216;-62
2022/06/14 10:41:10;;;;;;;103.03;6.55;;;;;;;;;;5011241;28;20864;-62
2022/06/14 10:43:42;;;;;;;32.08;2.28;;;;;;;;;;5007032;28;20217;-63
2022/06/14 10:46:08;;;;;;;31.73;3.45;;;;;;;;;;4989820;28;20262;-62
2022/06/14 10:48:34;;;;;;;50.65;4.68;;;;;;;;;;4991926;28;20213;-61
2022/06/14 10:51:04;;;;;;;5.53;1.65;;;;;;;;;;4991837;28;20296;-62
2022/06/14 10:53:44;;;;;;;6.97;1.30;;;;;;;;;;4997239;28;20220;-62
2022/06/14 10:56:22;;;;;;;5.88;1.73;;;;;;;;;;4990375;28;20300;-62
2022/06/14 10:58:53;;;;;;;7.47;1.40;;;;;;;;;;4992116;28;20590;-62
2022/06/14 11:01:18;;;;;;;6.85;1.52;;;;;;;;;;4990271;28;20283;-63
2022/06/14 11:03:59;;;;;;;14.43;1.80;;;;;;;;;;4991731;28;20221;-61
2022/06/14 11:06:28;;;;;;;6.40;1.35;;;;;;;;;;4989427;28;20278;-61
2022/06/14 11:09:12;;;;;;;7.57;1.50;;;;;;;;;;4997952;28;20253;-62
2022/06/14 11:11:43;;;;;;;7.00;1.60;;;;;;;;;;5006499;28;20217;-62
2022/06/14 11:14:12;;;;;;;6.60;1.42;;;;;;;;;;4990191;28;20221;-62
2022/06/14 11:16:39;;;;;;;10.60;1.73;;;;;;;;;;4990658;28;20427;-62
2022/06/14 11:19:32;;;;;;;4.45;1.20;;;;;;;;;;4991284;28;20217;-61
2022/06/14 11:22:01;;;;;;;11.50;1.75;;;;;;;;;;4991139;28;20600;-61
2022/06/14 11:24:31;;;;;;;7.35;1.48;;;;;;;;;;5007632;28;20209;-61
2022/06/14 11:27:10;;;;;;;8.15;1.52;;;;;;;;;;4990312;28;20300;-62
2022/06/14 11:29:38;;;;;;;6.78;1.90;;;;;;;;;;4996976;28;20271;-62
2022/06/14 11:32:04;;;;;;;7.30;1.50;;;;;;;;;;4998270;28;20227;-63
2022/06/14 11:34:43;;;;;;;5.40;1.42;;;;;;;;;;5010994;28;20312;-66
2022/06/14 11:37:08;;;;;;;130.57;10.25;;;;;;;;;;5010648;28;20250;-64
2022/06/14 11:39:34;;;;;;;6.43;1.45;;;;;;;;;;5011472;28;20236;-66
2022/06/14 11:42:01;;;;;;;6.22;1.60;;;;;;;;;;5010779;28;20208;-66
2022/06/14 11:44:46;;;;;;;5.95;1.65;;;;;;;;;;4999865;28;20271;-66
2022/06/14 11:47:11;;;;;;;8.00;2.03;;;;;;;;;;4991236;28;20228;-65
2022/06/14 11:49:42;;;;;;;6.38;1.60;;;;;;;;;;4990898;28;20604;-65
2022/06/14 11:52:13;;;;;;;7.50;1.85;;;;;;;;;;4989559;28;20216;-65
2022/06/14 11:54:43;;;;;;;7.45;1.50;;;;;;;;;;4990550;28;20223;-63
2022/06/14 11:57:09;;;;;;;18.63;1.80;;;;;;;;;;4989577;28;20218;-65
2022/06/14 11:59:44;;;;;;;24.52;2.75;;;;;;;;;;4991715;28;20259;-65
2022/06/14 12:02:10;;;;;;;40.63;4.15;;;;;;;;;;4989575;28;20205;-65
2022/06/14 12:04:37;;;;;;;25.70;3.35;;;;;;;;;;4993415;28;20213;-66
2022/06/14 12:07:20;;;;;;;13.18;1.55;;;;;;;;;;4993487;28;20213;-65
2022/06/14 12:09:55;;;;;;;7.40;1.40;;;;;;;;;;5001406;28;20240;-66
2022/06/14 12:12:27;;;;;;;14.65;1.98;;;;;;;;;;4994638;28;20237;-64
2022/06/14 12:14:55;;;;;;;4.38;1.20;;;;;;;;;;4995155;28;20220;-64
2022/06/14 12:17:21;;;;;;;6.90;1.25;;;;;;;;;;4991970;28;20331;-66
2022/06/14 12:19:49;;;;;;;3.63;1.00;;;;;;;;;;4995169;28;20232;-66
2022/06/14 12:22:28;;;;;;;7.10;1.50;;;;;;;;;;4994599;28;20239;-66
2022/06/14 12:27:39;;;;;;;7.28;1.60;;;;;;;;;;5000790;28;20774;-66
2022/06/14 12:30:04;;;;;;;5.25;1.15;;;;;;;;;;4993130;28;20793;-65
2022/06/14 12:32:33;;;;;;;5.95;1.45;;;;;;;;;;5005726;28;20235;-66
2022/06/14 12:35:00;;;;;;;5.25;1.30;;;;;;;;;;5013379;28;20596;-64
2022/06/14 12:37:48;;;;;;;4.25;1.42;;;;;;;;;;5011336;28;20702;-65
2022/06/14 12:40:28;;;;;;;8.93;2.08;;;;;;;;;;5013356;28;20229;-65
2022/06/14 12:43:00;;;;;;;6.35;1.23;;;;;;;;;;5014163;28;20224;-65
2022/06/14 12:45:27;;;;;;;7.00;1.60;;;;;;;;;;5011290;28;20219;-63
2022/06/14 12:48:11;;;;;;;4.90;1.42;;;;;;;;;;5013213;28;20254;-65
2022/06/14 12:50:39;;;;;;;5.40;1.50;;;;;;;;;;5012030;28;20252;-66
2022/06/14 12:53:17;;;;;;;3.90;1.40;;;;;;;;;;5012467;28;20225;-65
2022/06/14 12:55:44;;;;;;;7.57;2.25;;;;;;;;;;5014148;28;20212;-65
2022/06/14 12:58:14;;;;;;;6.78;1.33;;;;;;;;;;4996029;28;20676;-65
2022/06/14 13:00:41;;;;;;;7.60;1.60;;;;;;;;;;5011596;28;20232;-65
2022/06/14 13:03:15;;;;;;;7.45;1.98;;;;;;;;;;5011470;28;20208;-65
2022/06/14 13:05:42;;;;;;;6.68;1.63;;;;;;;;;;5011582;28;20246;-65
2022/06/14 13:08:15;;;;;;;5.22;1.30;;;;;;;;;;5012078;28;20295;-64
2022/06/14 13:10:46;;;;;;;9.00;1.63;;;;;;;;;;4998877;28;20676;-64
2022/06/14 13:13:31;;;;;;;7.97;1.60;;;;;;;;;;4991413;28;20232;-65
2022/06/14 13:15:56;;;;;;;6.78;1.63;;;;;;;;;;4992118;28;20213;-64
2022/06/14 13:18:40;;;;;;;7.63;1.52;;;;;;;;;;4993341;28;20201;-66
2022/06/14 13:21:10;;;;;;;4.70;1.45;;;;;;;;;;4992949;28;20228;-64
2022/06/14 13:23:53;;;;;;;5.25;1.30;;;;;;;;;;4993690;28;20746;-63
2022/06/14 13:26:24;;;;;;;12.63;1.85;;;;;;;;;;4993289;28;20288;-62
2022/06/14 13:28:53;;;;;;;7.13;1.75;;;;;;;;;;4991936;28;20251;-64
2022/06/14 13:31:24;;;;;;;6.60;1.50;;;;;;;;;;4994140;28;20580;-65
2022/06/14 13:33:53;;;;;;;5.57;1.42;;;;;;;;;;5012680;28;20307;-65
2022/06/14 13:36:22;;;;;;;7.47;1.52;;;;;;;;;;5011429;28;20232;-65
2022/06/14 13:38:50;;;;;;;6.38;1.70;;;;;;;;;;5011646;28;20698;-64
2022/06/14 13:41:18;;;;;;;5.80;1.40;;;;;;;;;;5011877;28;20211;-65
2022/06/14 13:43:50;;;;;;;5.32;1.30;;;;;;;;;;5006114;28;20217;-64
2022/06/14 13:46:18;;;;;;;4.97;1.45;;;;;;;;;;4991637;28;20213;-64
2022/06/14 13:48:51;;;;;;;5.93;1.48;;;;;;;;;;4991203;28;20949;-64
2022/06/14 13:51:28;;;;;;;4.65;1.33;;;;;;;;;;4991373;28;20621;-64
2022/06/14 13:54:00;;;;;;;7.90;1.88;;;;;;;;;;4991918;28;20664;-65
2022/06/14 13:56:28;;;;;;;4.65;1.30;;;;;;;;;;5000623;28;20244;-63
2022/06/14 13:59:10;;;;;;;7.10;1.55;;;;;;;;;;5000303;28;20575;-65
2022/06/14 14:01:40;;;;;;;5.00;1.30;;;;;;;;;;5007298;28;20231;-65
2022/06/14 14:04:13;;;;;;;5.88;1.50;;;;;;;;;;5026580;28;20291;-65
2022/06/14 14:06:38;;;;;;;248.57;17.88;;;;;;;;;;5027888;28;20201;-63
2022/06/14 14:09:10;;;;;;;9.25;1.42;;;;;;;;;;5011365;28;21001;-64
2022/06/14 14:11:36;;;;;;;9.73;1.52;;;;;;;;;;4999738;28;20208;-67
2022/06/14 14:14:22;;;;;;;10.38;2.03;;;;;;;;;;4992154;28;20272;-65
2022/06/14 14:16:56;;;;;;;6.07;1.50;;;;;;;;;;4991719;28;20761;-65
2022/06/14 14:19:32;;;;;;;7.38;1.33;;;;;;;;;;4998696;28;20300;-66
2022/06/14 14:21:58;;;;;;;6.65;1.50;;;;;;;;;;4991043;28;20559;-62
2022/06/14 14:24:31;;;;;;;6.50;1.60;;;;;;;;;;4991315;28;20201;-62
2022/06/14 14:26:58;;;;;;;4.45;1.30;;;;;;;;;;4991966;28;20214;-63
2022/06/14 14:29:29;;;;;;;5.93;1.50;;;;;;;;;;4991937;28;20248;-64
2022/06/14 14:31:56;;;;;;;5.15;1.30;;;;;;;;;;4997525;28;20208;-63
2022/06/14 14:34:26;;;;;;;6.10;1.95;;;;;;;;;;5011813;28;20220;-62
2022/06/14 14:36:56;;;;;;;3.28;1.05;;;;;;;;;;5010061;28;20216;-64
2022/06/14 14:39:23;;;;;;;21.83;2.25;;;;;;;;;;5011232;28;20216;-63
2022/06/14 14:41:52;;;;;;;6.30;1.30;;;;;;;;;;5010708;28;20351;-63
2022/06/14 14:44:20;;;;;;;231.25;17.55;;;;;;;;;;5000432;28;20283;-62
2022/06/14 14:46:54;;;;;;;5.28;1.27;;;;;;;;;;4990872;28;20241;-63
2022/06/14 14:49:21;;;;;;;4.65;1.10;;;;;;;;;;4990396;28;20205;-64
2022/06/14 14:51:52;;;;;;;4.43;1.20;;;;;;;;;;4989917;28;20212;-63
2022/06/14 14:54:27;;;;;;;4.40;1.25;;;;;;;;;;4990246;28;20240;-63
2022/06/14 14:56:53;;;;;;;8.00;1.73;;;;;;;;;;4992302;28;20215;-64
2022/06/14 14:59:21;;;;;;;3.72;1.40;;;;;;;;;;4991080;28;20247;-64
2022/06/14 15:07:22;;;;;;;4.68;1.33;;;;;;;;;;4991680;28;20359;-63
2022/06/14 15:09:51;;;;;;;6.03;1.38;;;;;;;;;;4988667;28;20706;-63
2022/06/14 15:12:17;;;;;;;5.45;1.50;;;;;;;;;;4996412;28;20239;-64